sensor_id;sensor_type;location;lat;lon;timestamp;temperature;humidity
39345;DHT22;25061;51.954;6.996;2024-01-30T09:04:21;7.10;99.90
39345;DHT22;25061;51.954;6.996;2024-01-30T09:06:48;7.80;99.90
39345;DHT22;25061;51.954;6.996;2024-01-30T09:09:14;7.30;99.90
39345;DHT22;25061;51.954;6.996;2024-01-30T09:11:40;7.10;99.90
39345;DHT22;25061;51.954;6.996;2024-01-30T09:14:06;7.20;99.90
39345;DHT22;25061;51.954;6.996;2024-01-30T09:16:32;7.00;99.90
39345;DHT22;25061;51.954;6.996;2024-01-30T09:18:57;7.20;99.90
39345;DHT22;25061;51.954;6.996;2024-01-30T09:21:23;6.90;99.90
39345;DHT22;25061;51.954;6.996;2024-01-30T09:23:49;7.10;99.90
39345;DHT22;25061;51.954;6.996;2024-01-30T09:26:14;6.90;99.90
39345;DHT22;25061;51.954;6.996;2024-01-30T09:28:40;7.20;99.90
39345;DHT22;25061;51.954;6.996;2024-01-30T09:31:11;6.90;99.90
39345;DHT22;25061;51.954;6.996;2024-01-30T09:33:38;7.10;99.90
39345;DHT22;25061;51.954;6.996;2024-01-30T09:36:05;7.10;99.90
39345;DHT22;25061;51.954;6.996;2024-01-30T09:38:31;6.90;99.90
39345;DHT22;25061;51.954;6.996;2024-01-30T09:41:01;7.10;99.90
39345;DHT22;25061;51.954;6.996;2024-01-30T09:43:33;7.20;99.90
39345;DHT22;25061;51.954;6.996;2024-01-30T09:46:00;7.40;99.90
39345;DHT22;25061;51.954;6.996;2024-01-30T09:48:29;7.40;99.90
39345;DHT22;25061;51.954;6.996;2024-01-30T09:50:57;7.70;99.90
39345;DHT22;25061;51.954;6.996;2024-01-30T09:53:24;7.30;99.90
39345;DHT22;25061;51.954;6.996;2024-01-30T09:55:50;7.60;99.90
39345;DHT22;25061;51.954;6.996;2024-01-30T09:58:16;7.80;99.90
39345;DHT22;25061;51.954;6.996;2024-01-30T10:00:42;7.40;99.90
39345;DHT22;25061;51.954;6.996;2024-01-30T10:03:08;8.00;99.90
39345;DHT22;25061;51.954;6.996;2024-01-30T10:05:35;8.20;99.90
39345;DHT22;25061;51.954;6.996;2024-01-30T10:08:06;8.80;99.90
39345;DHT22;25061;51.954;6.996;2024-01-30T10:10:33;8.90;99.90
39345;DHT22;25061;51.954;6.996;2024-01-30T10:12:59;8.80;99.90
39345;DHT22;25061;51.954;6.996;2024-01-30T10:15:25;8.30;99.90
39345;DHT22;25061;51.954;6.996;2024-01-30T10:17:53;9.20;99.90
39345;DHT22;25061;51.954;6.996;2024-01-30T10:20:19;10.60;99.90
39345;DHT22;25061;51.954;6.996;2024-01-30T10:22:45;11.40;99.90
39345;DHT22;25061;51.954;6.996;2024-01-30T10:25:11;11.30;99.90
39345;DHT22;25061;51.954;6.996;2024-01-30T10:27:39;10.70;99.90
39345;DHT22;25061;51.954;6.996;2024-01-30T10:30:05;9.60;99.90
39345;DHT22;25061;51.954;6.996;2024-01-30T10:32:31;10.00;99.90
39345;DHT22;25061;51.954;6.996;2024-01-30T10:34:56;9.30;99.90
39345;DHT22;25061;51.954;6.996;2024-01-30T10:37:25;9.20;99.90
39345;DHT22;25061;51.954;6.996;2024-01-30T10:39:53;8.80;99.90
39345;DHT22;25061;51.954;6.996;2024-01-30T10:42:20;8.60;99.90
39345;DHT22;25061;51.954;6.996;2024-01-30T10:44:56;8.90;99.90
39345;DHT22;25061;51.954;6.996;2024-01-30T10:47:27;8.80;99.90
39345;DHT22;25061;51.954;6.996;2024-01-30T10:49:54;8.40;99.90
39345;DHT22;25061;51.954;6.996;2024-01-30T10:52:20;8.60;99.90
39345;DHT22;25061;51.954;6.996;2024-01-30T10:54:46;8.60;99.90
39345;DHT22;25061;51.954;6.996;2024-01-30T10:57:12;8.50;99.90
39345;DHT22;25061;51.954;6.996;2024-01-30T10:59:39;7.90;99.90
39345;DHT22;25061;51.954;6.996;2024-01-30T11:02:05;7.70;99.90
39345;DHT22;25061;51.954;6.996;2024-01-30T11:04:39;7.60;99.90
39345;DHT22;25061;51.954;6.996;2024-01-30T11:07:27;8.30;99.90
39345;DHT22;25061;51.954;6.996;2024-01-30T11:10:21;7.90;99.90
39345;DHT22;25061;51.954;6.996;2024-01-30T11:12:53;8.00;99.90
39345;DHT22;25061;51.954;6.996;2024-01-30T11:15:18;8.10;99.90
39345;DHT22;25061;51.954;6.996;2024-01-30T11:17:52;8.30;99.90
39345;DHT22;25061;51.954;6.996;2024-01-30T11:20:30;8.70;99.90
39345;DHT22;25061;51.954;6.996;2024-01-30T11:22:57;8.40;99.90
39345;DHT22;25061;51.954;6.996;2024-01-30T11:25:24;8.10;99.90
39345;DHT22;25061;51.954;6.996;2024-01-30T11:27:54;8.60;99.90
39345;DHT22;25061;51.954;6.996;2024-01-30T11:30:30;7.70;99.90
39345;DHT22;25061;51.954;6.996;2024-01-30T11:35:34;8.10;99.90
39345;DHT22;25061;51.954;6.996;2024-01-30T11:38:01;8.10;99.90
39345;DHT22;25061;51.954;6.996;2024-01-30T11:40:31;8.30;99.90
39345;DHT22;25061;51.954;6.996;2024-01-30T11:42:59;8.00;99.90
39345;DHT22;25061;51.954;6.996;2024-01-30T11:45:26;8.10;99.90
39345;DHT22;25061;51.954;6.996;2024-01-30T11:47:52;8.10;99.90
39345;DHT22;25061;51.954;6.996;2024-01-30T11:50:18;8.00;99.90
39345;DHT22;25061;51.954;6.996;2024-01-30T11:52:44;8.80;99.90
39345;DHT22;25061;51.954;6.996;2024-01-30T11:55:10;8.30;99.90
39345;DHT22;25061;51.954;6.996;2024-01-30T11:57:36;8.00;99.90
39345;DHT22;25061;51.954;6.996;2024-01-30T12:00:14;8.20;99.90
39345;DHT22;25061;51.954;6.996;2024-01-30T12:02:40;7.80;99.90
39345;DHT22;25061;51.954;6.996;2024-01-30T12:05:07;8.00;99.90
39345;DHT22;25061;51.954;6.996;2024-01-30T12:07:33;7.90;99.90
39345;DHT22;25061;51.954;6.996;2024-01-30T12:10:03;7.70;99.90
39345;DHT22;25061;51.954;6.996;2024-01-30T12:12:29;7.90;99.90
39345;DHT22;25061;51.954;6.996;2024-01-30T12:14:59;7.80;99.90
39345;DHT22;25061;51.954;6.996;2024-01-30T12:17:28;7.80;99.90
39345;DHT22;25061;51.954;6.996;2024-01-30T12:22:29;8.20;99.90
39345;DHT22;25061;51.954;6.996;2024-01-30T12:24:55;8.20;99.90
39345;DHT22;25061;51.954;6.996;2024-01-30T12:27:20;8.00;99.90
39345;DHT22;25061;51.954;6.996;2024-01-30T12:29:46;7.80;99.90
39345;DHT22;25061;51.954;6.996;2024-01-30T12:32:15;8.40;99.90
39345;DHT22;25061;51.954;6.996;2024-01-30T12:34:42;8.00;99.90
39345;DHT22;25061;51.954;6.996;2024-01-30T12:37:08;8.50;99.90
39345;DHT22;25061;51.954;6.996;2024-01-30T12:39:38;8.10;99.90
39345;DHT22;25061;51.954;6.996;2024-01-30T12:42:04;8.60;99.90
39345;DHT22;25061;51.954;6.996;2024-01-30T12:44:30;8.40;99.90
39345;DHT22;25061;51.954;6.996;2024-01-30T12:46:55;8.80;99.90
39345;DHT22;25061;51.954;6.996;2024-01-30T12:49:21;8.50;99.90
39345;DHT22;25061;51.954;6.996;2024-01-30T12:51:47;8.60;99.90
39345;DHT22;25061;51.954;6.996;2024-01-30T12:54:13;8.10;99.90
39345;DHT22;25061;51.954;6.996;2024-01-30T12:56:41;8.20;99.90
39345;DHT22;25061;51.954;6.996;2024-01-30T12:59:07;8.40;99.90
39345;DHT22;25061;51.954;6.996;2024-01-30T13:01:32;8.80;99.90
39345;DHT22;25061;51.954;6.996;2024-01-30T13:03:58;8.60;99.90
39345;DHT22;25061;51.954;6.996;2024-01-30T13:06:24;8.80;99.90
39345;DHT22;25061;51.954;6.996;2024-01-30T13:08:49;8.70;99.90
39345;DHT22;25061;51.954;6.996;2024-01-30T13:11:15;8.60;99.90
39345;DHT22;25061;51.954;6.996;2024-01-30T13:13:40;8.50;99.90
39345;DHT22;25061;51.954;6.996;2024-01-30T13:16:06;8.70;99.90
39345;DHT22;25061;51.954;6.996;2024-01-30T13:18:32;8.50;99.90
39345;DHT22;25061;51.954;6.996;2024-01-30T13:20:57;8.40;99.90
39345;DHT22;25061;51.954;6.996;2024-01-30T13:23:23;8.70;99.90
39345;DHT22;25061;51.954;6.996;2024-01-30T13:25:49;8.80;99.90
39345;DHT22;25061;51.954;6.996;2024-01-30T13:28:14;8.20;99.90
39345;DHT22;25061;51.954;6.996;2024-01-30T13:30:40;9.00;99.90
39345;DHT22;25061;51.954;6.996;2024-01-30T13:33:06;8.40;99.90
39345;DHT22;25061;51.954;6.996;2024-01-30T13:35:32;8.70;99.90
39345;DHT22;25061;51.954;6.996;2024-01-30T13:37:57;8.10;99.90
39345;DHT22;25061;51.954;6.996;2024-01-30T13:40:23;8.30;99.90
39345;DHT22;25061;51.954;6.996;2024-01-30T13:42:50;8.10;99.90
39345;DHT22;25061;51.954;6.996;2024-01-30T13:45:15;8.00;99.90
39345;DHT22;25061;51.954;6.996;2024-01-30T13:47:41;8.10;99.90
39345;DHT22;25061;51.954;6.996;2024-01-30T13:50:07;8.30;99.90
39345;DHT22;25061;51.954;6.996;2024-01-30T13:52:33;8.60;99.90
39345;DHT22;25061;51.954;6.996;2024-01-30T13:55:06;9.40;99.90
39345;DHT22;25061;51.954;6.996;2024-01-30T13:57:32;9.00;99.90
39345;DHT22;25061;51.954;6.996;2024-01-30T14:00:02;8.40;99.90
39345;DHT22;25061;51.954;6.996;2024-01-30T14:02:30;8.30;99.90
39345;DHT22;25061;51.954;6.996;2024-01-30T14:04:56;8.30;99.90
39345;DHT22;25061;51.954;6.996;2024-01-30T14:07:22;8.80;99.90
39345;DHT22;25061;51.954;6.996;2024-01-30T14:09:48;8.70;99.90
39345;DHT22;25061;51.954;6.996;2024-01-30T14:12:14;8.60;99.90
39345;DHT22;25061;51.954;6.996;2024-01-30T14:14:40;8.90;99.90
39345;DHT22;25061;51.954;6.996;2024-01-30T14:17:07;9.10;99.90
39345;DHT22;25061;51.954;6.996;2024-01-30T14:19:34;9.30;99.90
39345;DHT22;25061;51.954;6.996;2024-01-30T14:22:00;9.70;99.90
39345;DHT22;25061;51.954;6.996;2024-01-30T14:24:25;9.40;99.90
39345;DHT22;25061;51.954;6.996;2024-01-30T14:26:52;8.90;99.90
39345;DHT22;25061;51.954;6.996;2024-01-30T14:29:17;9.20;99.90
39345;DHT22;25061;51.954;6.996;2024-01-30T14:31:43;9.20;99.90
39345;DHT22;25061;51.954;6.996;2024-01-30T14:34:08;9.20;99.90
39345;DHT22;25061;51.954;6.996;2024-01-30T14:36:36;9.10;99.90
39345;DHT22;25061;51.954;6.996;2024-01-30T14:39:04;8.50;99.90
39345;DHT22;25061;51.954;6.996;2024-01-30T14:41:32;8.50;99.90
39345;DHT22;25061;51.954;6.996;2024-01-30T14:43:58;8.50;99.90
39345;DHT22;25061;51.954;6.996;2024-01-30T14:46:27;8.90;99.90
39345;DHT22;25061;51.954;6.996;2024-01-30T14:48:54;8.90;99.90
39345;DHT22;25061;51.954;6.996;2024-01-30T14:51:20;9.20;99.90
39345;DHT22;25061;51.954;6.996;2024-01-30T14:53:45;9.10;99.90
39345;DHT22;25061;51.954;6.996;2024-01-30T14:56:11;9.00;99.90
39345;DHT22;25061;51.954;6.996;2024-01-30T14:58:37;8.60;99.90
39345;DHT22;25061;51.954;6.996;2024-01-30T15:01:03;8.30;99.90
39345;DHT22;25061;51.954;6.996;2024-01-30T15:03:28;8.50;99.90
39345;DHT22;25061;51.954;6.996;2024-01-30T15:05:58;8.80;99.90
39345;DHT22;25061;51.954;6.996;2024-01-30T15:08:24;8.50;99.90
39345;DHT22;25061;51.954;6.996;2024-01-30T15:10:49;8.50;99.90
39345;DHT22;25061;51.954;6.996;2024-01-30T15:13:16;8.70;99.90
39345;DHT22;25061;51.954;6.996;2024-01-30T15:15:41;8.30;99.90
39345;DHT22;25061;51.954;6.996;2024-01-30T15:18:08;8.40;99.90
39345;DHT22;25061;51.954;6.996;2024-01-30T15:20:36;8.50;99.90
39345;DHT22;25061;51.954;6.996;2024-01-30T15:23:02;8.30;99.90
39345;DHT22;25061;51.954;6.996;2024-01-30T15:25:28;8.20;99.90
39345;DHT22;25061;51.954;6.996;2024-01-30T15:27:54;8.50;99.90
39345;DHT22;25061;51.954;6.996;2024-01-30T15:30:20;8.40;99.90
39345;DHT22;25061;51.954;6.996;2024-01-30T15:32:45;8.30;99.90
39345;DHT22;25061;51.954;6.996;2024-01-30T15:35:11;8.10;99.90
39345;DHT22;25061;51.954;6.996;2024-01-30T15:37:37;8.10;99.90
39345;DHT22;25061;51.954;6.996;2024-01-30T15:40:03;8.00;99.90
39345;DHT22;25061;51.954;6.996;2024-01-30T15:42:32;8.00;99.90
39345;DHT22;25061;51.954;6.996;2024-01-30T15:44:57;8.00;99.90
39345;DHT22;25061;51.954;6.996;2024-01-30T15:47:24;8.10;99.90
39345;DHT22;25061;51.954;6.996;2024-01-30T15:49:50;8.30;99.90
39345;DHT22;25061;51.954;6.996;2024-01-30T15:52:15;8.20;99.90
39345;DHT22;25061;51.954;6.996;2024-01-30T15:54:43;8.10;99.90
39345;DHT22;25061;51.954;6.996;2024-01-30T15:57:09;8.00;99.90
39345;DHT22;25061;51.954;6.996;2024-01-30T15:59:36;8.10;99.90
39345;DHT22;25061;51.954;6.996;2024-01-30T16:02:02;8.10;99.90
39345;DHT22;25061;51.954;6.996;2024-01-30T16:04:28;8.10;99.90
39345;DHT22;25061;51.954;6.996;2024-01-30T16:06:54;8.30;99.90
39345;DHT22;25061;51.954;6.996;2024-01-30T16:09:22;8.00;99.90
39345;DHT22;25061;51.954;6.996;2024-01-30T16:11:48;8.10;99.90
39345;DHT22;25061;51.954;6.996;2024-01-30T16:14:13;8.20;99.90
39345;DHT22;25061;51.954;6.996;2024-01-30T16:16:40;8.10;99.90
39345;DHT22;25061;51.954;6.996;2024-01-30T16:19:05;8.00;99.90
39345;DHT22;25061;51.954;6.996;2024-01-30T16:21:31;8.00;99.90
39345;DHT22;25061;51.954;6.996;2024-01-30T16:23:57;7.90;99.90
39345;DHT22;25061;51.954;6.996;2024-01-30T16:26:23;7.90;99.90
39345;DHT22;25061;51.954;6.996;2024-01-30T16:28:49;8.00;99.90
39345;DHT22;25061;51.954;6.996;2024-01-30T16:31:14;8.10;99.90
39345;DHT22;25061;51.954;6.996;2024-01-30T16:33:48;7.90;99.90
39345;DHT22;25061;51.954;6.996;2024-01-30T16:36:14;8.00;99.90
39345;DHT22;25061;51.954;6.996;2024-01-30T16:38:41;8.20;99.90
39345;DHT22;25061;51.954;6.996;2024-01-30T16:41:08;8.20;99.90
39345;DHT22;25061;51.954;6.996;2024-01-30T16:43:33;8.00;99.90
39345;DHT22;25061;51.954;6.996;2024-01-30T16:45:59;8.00;99.90
39345;DHT22;25061;51.954;6.996;2024-01-30T16:48:26;7.90;99.90
39345;DHT22;25061;51.954;6.996;2024-01-30T16:50:52;7.90;99.90
39345;DHT22;25061;51.954;6.996;2024-01-30T16:53:20;8.00;99.90
39345;DHT22;25061;51.954;6.996;2024-01-30T16:55:46;7.90;99.90
39345;DHT22;25061;51.954;6.996;2024-01-30T16:58:13;7.90;99.90
39345;DHT22;25061;51.954;6.996;2024-01-30T17:00:38;7.90;99.90
39345;DHT22;25061;51.954;6.996;2024-01-30T17:03:04;7.80;99.90
39345;DHT22;25061;51.954;6.996;2024-01-30T17:05:33;7.70;99.90
39345;DHT22;25061;51.954;6.996;2024-01-30T17:07:59;7.70;99.90
39345;DHT22;25061;51.954;6.996;2024-01-30T17:10:25;7.60;99.90
39345;DHT22;25061;51.954;6.996;2024-01-30T17:12:50;7.80;99.90
39345;DHT22;25061;51.954;6.996;2024-01-30T17:15:16;7.80;99.90
39345;DHT22;25061;51.954;6.996;2024-01-30T17:17:41;7.70;99.90
39345;DHT22;25061;51.954;6.996;2024-01-30T17:20:07;7.80;99.90
39345;DHT22;25061;51.954;6.996;2024-01-30T17:22:33;7.80;99.90
39345;DHT22;25061;51.954;6.996;2024-01-30T17:24:59;7.70;99.90
39345;DHT22;25061;51.954;6.996;2024-01-30T17:27:24;7.70;99.90
39345;DHT22;25061;51.954;6.996;2024-01-30T17:29:50;7.60;99.90
39345;DHT22;25061;51.954;6.996;2024-01-30T17:32:15;7.60;99.90
39345;DHT22;25061;51.954;6.996;2024-01-30T17:34:41;7.60;99.90
39345;DHT22;25061;51.954;6.996;2024-01-30T17:37:07;7.50;99.90
39345;DHT22;25061;51.954;6.996;2024-01-30T17:39:33;7.60;99.90
39345;DHT22;25061;51.954;6.996;2024-01-30T17:41:58;7.60;99.90
39345;DHT22;25061;51.954;6.996;2024-01-30T17:44:28;7.60;99.90
39345;DHT22;25061;51.954;6.996;2024-01-30T17:46:54;7.60;99.90
39345;DHT22;25061;51.954;6.996;2024-01-30T17:49:20;7.60;99.90
39345;DHT22;25061;51.954;6.996;2024-01-30T17:51:46;7.60;99.90
39345;DHT22;25061;51.954;6.996;2024-01-30T17:54:11;7.70;99.90
39345;DHT22;25061;51.954;6.996;2024-01-30T17:56:37;7.60;99.90
39345;DHT22;25061;51.954;6.996;2024-01-30T17:59:03;7.60;99.90
39345;DHT22;25061;51.954;6.996;2024-01-30T18:01:28;7.70;99.90
39345;DHT22;25061;51.954;6.996;2024-01-30T18:03:54;7.60;99.90
39345;DHT22;25061;51.954;6.996;2024-01-30T18:06:21;7.60;99.90
39345;DHT22;25061;51.954;6.996;2024-01-30T18:08:47;7.50;99.90
39345;DHT22;25061;51.954;6.996;2024-01-30T18:11:36;7.60;99.90
39345;DHT22;25061;51.954;6.996;2024-01-30T18:14:25;7.60;99.90
39345;DHT22;25061;51.954;6.996;2024-01-30T18:16:50;7.50;99.90
39345;DHT22;25061;51.954;6.996;2024-01-30T18:19:16;7.50;99.90
39345;DHT22;25061;51.954;6.996;2024-01-30T18:21:44;7.50;99.90
39345;DHT22;25061;51.954;6.996;2024-01-30T18:24:10;7.50;99.90
39345;DHT22;25061;51.954;6.996;2024-01-30T18:26:36;7.50;99.90
39345;DHT22;25061;51.954;6.996;2024-01-30T18:29:02;7.40;99.90
39345;DHT22;25061;51.954;6.996;2024-01-30T18:31:28;7.30;99.90
39345;DHT22;25061;51.954;6.996;2024-01-30T18:33:54;7.30;99.90
39345;DHT22;25061;51.954;6.996;2024-01-30T18:36:21;7.40;99.90
39345;DHT22;25061;51.954;6.996;2024-01-30T18:38:48;7.40;99.90
39345;DHT22;25061;51.954;6.996;2024-01-30T18:41:14;7.40;99.90
39345;DHT22;25061;51.954;6.996;2024-01-30T18:43:40;7.30;99.90
39345;DHT22;25061;51.954;6.996;2024-01-30T18:46:07;7.30;99.90
39345;DHT22;25061;51.954;6.996;2024-01-30T18:48:34;7.30;99.90
39345;DHT22;25061;51.954;6.996;2024-01-30T18:51:00;7.30;99.90
39345;DHT22;25061;51.954;6.996;2024-01-30T18:53:26;7.30;99.90
39345;DHT22;25061;51.954;6.996;2024-01-30T18:55:52;7.30;99.90
39345;DHT22;25061;51.954;6.996;2024-01-30T18:58:17;7.30;99.90
39345;DHT22;25061;51.954;6.996;2024-01-30T19:00:43;7.30;99.90
39345;DHT22;25061;51.954;6.996;2024-01-30T19:03:09;7.30;99.90
39345;DHT22;25061;51.954;6.996;2024-01-30T19:05:34;7.30;99.90
39345;DHT22;25061;51.954;6.996;2024-01-30T19:08:01;7.30;99.90
39345;DHT22;25061;51.954;6.996;2024-01-30T19:10:27;7.30;99.90
39345;DHT22;25061;51.954;6.996;2024-01-30T19:12:52;7.30;99.90
39345;DHT22;25061;51.954;6.996;2024-01-30T19:15:18;7.30;99.90
39345;DHT22;25061;51.954;6.996;2024-01-30T19:17:44;7.30;99.90
39345;DHT22;25061;51.954;6.996;2024-01-30T19:20:10;7.30;99.90
39345;DHT22;25061;51.954;6.996;2024-01-30T19:22:36;7.30;99.90
39345;DHT22;25061;51.954;6.996;2024-01-30T19:25:02;7.30;99.90
39345;DHT22;25061;51.954;6.996;2024-01-30T19:27:30;7.30;99.90
39345;DHT22;25061;51.954;6.996;2024-01-30T19:29:56;7.30;99.90
39345;DHT22;25061;51.954;6.996;2024-01-30T19:32:22;7.30;99.90
39345;DHT22;25061;51.954;6.996;2024-01-30T19:34:48;7.30;99.90
39345;DHT22;25061;51.954;6.996;2024-01-30T19:37:16;7.30;99.90
39345;DHT22;25061;51.954;6.996;2024-01-30T19:39:47;7.30;99.90
39345;DHT22;25061;51.954;6.996;2024-01-30T19:42:13;7.30;99.90
39345;DHT22;25061;51.954;6.996;2024-01-30T19:44:39;7.30;99.90
39345;DHT22;25061;51.954;6.996;2024-01-30T19:47:05;7.30;99.90
39345;DHT22;25061;51.954;6.996;2024-01-30T19:49:38;7.30;99.90
39345;DHT22;25061;51.954;6.996;2024-01-30T19:52:06;7.30;99.90
39345;DHT22;25061;51.954;6.996;2024-01-30T19:54:33;7.30;99.90
39345;DHT22;25061;51.954;6.996;2024-01-30T19:57:00;7.30;99.90
39345;DHT22;25061;51.954;6.996;2024-01-30T19:59:26;7.30;99.90
39345;DHT22;25061;51.954;6.996;2024-01-30T20:01:52;7.30;99.90
39345;DHT22;25061;51.954;6.996;2024-01-30T20:04:18;7.20;99.90
39345;DHT22;25061;51.954;6.996;2024-01-30T20:06:43;7.20;99.90
39345;DHT22;25061;51.954;6.996;2024-01-30T20:09:09;7.30;99.90
39345;DHT22;25061;51.954;6.996;2024-01-30T20:11:35;7.20;99.90
39345;DHT22;25061;51.954;6.996;2024-01-30T20:14:01;7.20;99.90
39345;DHT22;25061;51.954;6.996;2024-01-30T20:16:39;7.20;99.90
39345;DHT22;25061;51.954;6.996;2024-01-30T20:19:05;7.20;99.90
39345;DHT22;25061;51.954;6.996;2024-01-30T20:21:33;7.20;99.90
39345;DHT22;25061;51.954;6.996;2024-01-30T20:23:59;7.20;99.90
39345;DHT22;25061;51.954;6.996;2024-01-30T20:26:24;7.20;99.90
39345;DHT22;25061;51.954;6.996;2024-01-30T20:28:50;7.20;99.90
39345;DHT22;25061;51.954;6.996;2024-01-30T20:31:20;7.20;99.90
39345;DHT22;25061;51.954;6.996;2024-01-30T20:33:50;7.20;99.90
39345;DHT22;25061;51.954;6.996;2024-01-30T20:36:17;7.20;99.90
39345;DHT22;25061;51.954;6.996;2024-01-30T20:38:43;7.20;99.90
39345;DHT22;25061;51.954;6.996;2024-01-30T20:41:09;7.20;99.90
39345;DHT22;25061;51.954;6.996;2024-01-30T20:43:40;7.20;99.90
39345;DHT22;25061;51.954;6.996;2024-01-30T20:46:08;7.20;99.90
39345;DHT22;25061;51.954;6.996;2024-01-30T20:48:34;7.20;99.90
39345;DHT22;25061;51.954;6.996;2024-01-30T20:51:00;7.20;99.90
39345;DHT22;25061;51.954;6.996;2024-01-30T20:53:26;7.20;99.90
39345;DHT22;25061;51.954;6.996;2024-01-30T20:55:53;7.20;99.90
39345;DHT22;25061;51.954;6.996;2024-01-30T20:58:21;7.10;99.90
39345;DHT22;25061;51.954;6.996;2024-01-30T21:00:46;7.10;99.90
39345;DHT22;25061;51.954;6.996;2024-01-30T21:03:12;7.10;99.90
39345;DHT22;25061;51.954;6.996;2024-01-30T21:05:37;7.10;99.90
39345;DHT22;25061;51.954;6.996;2024-01-30T21:08:04;7.10;99.90
39345;DHT22;25061;51.954;6.996;2024-01-30T21:10:30;7.10;99.90
39345;DHT22;25061;51.954;6.996;2024-01-30T21:12:55;7.10;99.90
39345;DHT22;25061;51.954;6.996;2024-01-30T21:15:22;7.10;99.90
39345;DHT22;25061;51.954;6.996;2024-01-30T21:17:47;7.00;99.90
39345;DHT22;25061;51.954;6.996;2024-01-30T21:20:13;7.10;99.90
39345;DHT22;25061;51.954;6.996;2024-01-30T21:22:39;7.00;99.90
39345;DHT22;25061;51.954;6.996;2024-01-30T21:25:05;7.10;99.90
39345;DHT22;25061;51.954;6.996;2024-01-30T21:27:34;7.00;99.90
39345;DHT22;25061;51.954;6.996;2024-01-30T21:30:04;7.00;99.90
39345;DHT22;25061;51.954;6.996;2024-01-30T21:32:30;7.00;99.90
39345;DHT22;25061;51.954;6.996;2024-01-30T21:34:56;7.00;99.90
39345;DHT22;25061;51.954;6.996;2024-01-30T21:37:23;7.00;99.90
39345;DHT22;25061;51.954;6.996;2024-01-30T21:39:49;7.00;99.90
39345;DHT22;25061;51.954;6.996;2024-01-30T21:42:16;7.00;99.90
39345;DHT22;25061;51.954;6.996;2024-01-30T21:44:41;7.00;99.90
39345;DHT22;25061;51.954;6.996;2024-01-30T21:47:07;7.00;99.90
39345;DHT22;25061;51.954;6.996;2024-01-30T21:49:33;7.00;99.90
39345;DHT22;25061;51.954;6.996;2024-01-30T21:51:58;7.00;99.90
39345;DHT22;25061;51.954;6.996;2024-01-30T21:54:30;7.00;99.90
39345;DHT22;25061;51.954;6.996;2024-01-30T21:56:57;7.00;99.90
39345;DHT22;25061;51.954;6.996;2024-01-30T21:59:22;7.00;99.90
39345;DHT22;25061;51.954;6.996;2024-01-30T22:01:48;7.00;99.90
39345;DHT22;25061;51.954;6.996;2024-01-30T22:04:13;7.00;99.90
39345;DHT22;25061;51.954;6.996;2024-01-30T22:06:39;7.00;99.90
39345;DHT22;25061;51.954;6.996;2024-01-30T22:09:05;7.00;99.90
39345;DHT22;25061;51.954;6.996;2024-01-30T22:11:31;6.90;99.90
39345;DHT22;25061;51.954;6.996;2024-01-30T22:13:56;7.00;99.90
39345;DHT22;25061;51.954;6.996;2024-01-30T22:16:22;7.00;99.90
39345;DHT22;25061;51.954;6.996;2024-01-30T22:18:47;7.00;99.90
39345;DHT22;25061;51.954;6.996;2024-01-30T22:21:13;6.90;99.90
39345;DHT22;25061;51.954;6.996;2024-01-30T22:23:41;7.00;99.90
39345;DHT22;25061;51.954;6.996;2024-01-30T22:26:06;6.90;99.90
39345;DHT22;25061;51.954;6.996;2024-01-30T22:28:32;7.00;99.90
39345;DHT22;25061;51.954;6.996;2024-01-30T22:30:58;6.90;99.90
39345;DHT22;25061;51.954;6.996;2024-01-30T22:33:23;6.90;99.90
39345;DHT22;25061;51.954;6.996;2024-01-30T22:35:51;6.90;99.90
39345;DHT22;25061;51.954;6.996;2024-01-30T22:38:16;6.90;99.90
39345;DHT22;25061;51.954;6.996;2024-01-30T22:40:43;6.90;99.90
39345;DHT22;25061;51.954;6.996;2024-01-30T22:43:09;6.90;99.90
39345;DHT22;25061;51.954;6.996;2024-01-30T22:45:35;6.90;99.90
39345;DHT22;25061;51.954;6.996;2024-01-30T22:48:00;6.90;99.90
39345;DHT22;25061;51.954;6.996;2024-01-30T22:50:26;6.90;99.90
39345;DHT22;25061;51.954;6.996;2024-01-30T22:52:52;6.90;99.90
39345;DHT22;25061;51.954;6.996;2024-01-30T22:55:17;6.90;99.90
39345;DHT22;25061;51.954;6.996;2024-01-30T22:57:43;6.90;99.90
